FYRN

Rhino Camp Airport

Rhino Camp, Namibia
METAR FYRN 131000Z 36010KT CAVOK 34/07 Q1019
Observed Flight Rules
Dec-13 @ 10:00 UTC (51 minutes ago) Visual Flight Rules
Wind Visibility Clouds
360° at 10 knots 10,000+ meters
  • Clear skies
Temperatures Readings
Current 34°C / 93°F
Dewpoint 7°C / 45°F
Humidity 19%
Altimeter 30.09" Hg
Pressure 1019 hPa
Elevation 756
METAR FYRN 131000Z 36010KT CAVOK 34/07 Q1019
Observed Flight Rules
Dec-13 @ 10:00 UTC
(51 minutes ago)
VFR
Wind Visibility
360° at 10 knots 10,000+ meters
Clouds
  • Clear skies
Temperature Dewpoint
34°C / 93°F 7°C / 45°F
Humidity Altimeter Pressure
19% 30.09" Hg 1019 hPa